createdAt,value
2022-12-14T00:00:23.565Z,24.63
2022-12-14T00:03:25.206Z,24.35
2022-12-14T00:06:29.816Z,24.75
2022-12-14T00:09:31.302Z,23.75
2022-12-14T00:12:32.794Z,23.50
2022-12-14T00:15:36.127Z,22.70
2022-12-14T00:18:38.739Z,23.88
2022-12-14T00:21:40.201Z,24.00
2022-12-14T00:24:41.947Z,25.13
2022-12-14T00:27:45.030Z,23.63
2022-12-14T00:30:46.569Z,24.42
2022-12-14T00:33:48.332Z,26.10
2022-12-14T00:36:49.862Z,24.98
2022-12-14T00:39:51.511Z,24.65
2022-12-14T00:42:53.219Z,25.33
2022-12-14T00:45:55.200Z,22.83
2022-12-14T00:48:56.717Z,25.40
2022-12-14T00:51:58.265Z,24.42
2022-12-14T00:55:00.437Z,23.95
2022-12-14T00:58:01.999Z,25.45
2022-12-14T01:01:06.882Z,25.50
2022-12-14T01:04:22.378Z,24.98
2022-12-14T01:07:24.060Z,24.42
2022-12-14T01:10:25.583Z,23.48
2022-12-14T01:13:27.372Z,26.38
2022-12-14T01:16:29.260Z,24.50
2022-12-14T01:19:31.065Z,24.60
2022-12-14T01:22:32.531Z,24.55
2022-12-14T01:25:34.212Z,24.90
2022-12-14T01:28:36.404Z,24.13
2022-12-14T01:31:38.918Z,25.40
2022-12-14T01:34:40.531Z,23.13
2022-12-14T01:37:42.068Z,24.42
2022-12-14T01:40:43.508Z,25.52
2022-12-14T01:43:50.602Z,25.88
2022-12-14T01:46:59.771Z,25.60
2022-12-14T01:50:10.797Z,24.83
2022-12-14T01:53:18.484Z,24.60
2022-12-14T01:56:20.140Z,24.50
2022-12-14T01:59:31.143Z,24.05
2022-12-14T02:02:33.082Z,25.02
2022-12-14T02:05:37.564Z,24.40
2022-12-14T02:08:39.669Z,25.63
2022-12-14T02:11:55.523Z,24.52
2022-12-14T02:14:57.647Z,25.00
2022-12-14T02:18:01.883Z,26.42
2022-12-14T02:21:34.236Z,23.40
2022-12-14T02:24:49.273Z,24.92
2022-12-14T02:28:01.994Z,24.58
2022-12-14T02:31:26.222Z,25.88
2022-12-14T02:37:40.364Z,23.15
2022-12-14T02:41:03.471Z,25.33
2022-12-14T02:44:19.986Z,23.83
2022-12-14T02:47:35.272Z,25.63
2022-12-14T02:50:49.190Z,25.17
2022-12-14T02:54:24.808Z,25.73
2022-12-14T02:57:37.170Z,24.75
2022-12-14T03:00:39.020Z,25.35
2022-12-14T03:03:41.436Z,24.30
2022-12-14T03:06:58.436Z,24.98
2022-12-14T03:10:14.875Z,23.80
2022-12-14T03:13:44.663Z,24.15
2022-12-14T03:16:50.315Z,23.83
2022-12-14T03:20:12.305Z,24.40
2022-12-14T03:23:21.457Z,24.52
2022-12-14T03:26:45.613Z,26.38
2022-12-14T03:29:55.244Z,25.77
2022-12-14T03:33:03.556Z,25.52
2022-12-14T03:36:14.219Z,25.60
2022-12-14T03:39:29.451Z,25.75
2022-12-14T03:42:54.825Z,26.42
2022-12-14T03:46:08.287Z,27.55
2022-12-14T03:49:15.516Z,27.53
2022-12-14T03:52:35.168Z,26.70
2022-12-14T03:56:00.964Z,23.88
2022-12-14T03:59:12.300Z,24.27
2022-12-14T04:02:19.353Z,24.42
2022-12-14T04:05:20.942Z,25.20
2022-12-14T04:08:31.431Z,24.15
2022-12-14T04:11:56.726Z,24.25
2022-12-14T04:15:30.231Z,24.23
2022-12-14T04:18:59.691Z,22.80
2022-12-14T04:22:13.924Z,24.88
2022-12-14T04:25:40.572Z,24.65
2022-12-14T04:29:10.961Z,24.55
2022-12-14T04:32:22.185Z,25.45
2022-12-14T04:35:40.169Z,22.45
2022-12-14T04:38:44.120Z,23.70
2022-12-14T04:41:50.129Z,23.13
2022-12-14T04:45:01.219Z,26.20
2022-12-14T04:48:23.906Z,24.63
2022-12-14T04:51:36.231Z,26.52
2022-12-14T04:55:00.911Z,23.10
2022-12-14T04:58:13.559Z,26.50
2022-12-14T05:01:49.483Z,24.20
2022-12-14T05:05:08.656Z,25.88
2022-12-14T05:08:27.170Z,25.15
2022-12-14T05:11:53.155Z,25.67
2022-12-14T05:15:08.065Z,25.38
2022-12-14T05:18:10.258Z,24.77
2022-12-14T05:21:34.769Z,23.45
2022-12-14T05:24:36.464Z,24.80
2022-12-14T05:27:40.874Z,27.52
2022-12-14T05:30:42.642Z,24.85
2022-12-14T05:33:50.445Z,28.30
2022-12-14T05:36:51.936Z,24.15
2022-12-14T05:39:54.545Z,24.63
2022-12-14T05:43:13.207Z,24.58
2022-12-14T05:46:17.219Z,26.73
2022-12-14T05:49:18.819Z,25.05
2022-12-14T05:52:20.513Z,23.70
2022-12-14T05:55:22.354Z,25.77
2022-12-14T05:58:23.872Z,26.88
2022-12-14T06:01:25.450Z,27.23
2022-12-14T06:04:27.123Z,26.15
2022-12-14T06:07:28.637Z,25.17
2022-12-14T06:10:30.172Z,26.52
2022-12-14T06:13:31.755Z,27.23
2022-12-14T06:16:34.208Z,29.05
2022-12-14T06:19:35.747Z,27.58
2022-12-14T06:22:39.478Z,33.80
2022-12-14T06:25:44.401Z,28.05
2022-12-14T06:28:46.114Z,27.38
2022-12-14T06:31:49.468Z,28.92
2022-12-14T06:34:51.348Z,26.15
2022-12-14T06:37:52.891Z,27.52
2022-12-14T06:40:55.080Z,26.42
2022-12-14T06:43:57.280Z,28.67
2022-12-14T06:46:58.950Z,26.98
2022-12-14T06:50:00.620Z,27.73
2022-12-14T06:53:02.132Z,28.98
2022-12-14T06:56:12.942Z,28.83
2022-12-14T06:59:16.656Z,26.98
2022-12-14T07:02:18.320Z,29.42
2022-12-14T07:05:20.533Z,28.27
2022-12-14T07:08:22.015Z,28.00
2022-12-14T07:11:24.190Z,28.13
2022-12-14T07:14:25.802Z,31.38
2022-12-14T07:17:27.956Z,28.92
2022-12-14T07:20:29.590Z,30.83
2022-12-14T07:23:33.509Z,31.27
2022-12-14T07:29:37.964Z,30.80
2022-12-14T07:32:39.507Z,31.85
2022-12-14T07:35:41.211Z,31.02
2022-12-14T07:38:44.539Z,28.83
2022-12-14T07:41:47.609Z,28.80
2022-12-14T07:44:55.367Z,30.70
2022-12-14T07:47:58.036Z,28.52
2022-12-14T07:51:08.271Z,28.13
2022-12-14T07:54:11.475Z,27.88
2022-12-14T07:57:13.010Z,28.93
2022-12-14T08:00:14.794Z,29.58
2022-12-14T08:03:16.446Z,31.15
2022-12-14T08:06:20.504Z,30.23
2022-12-14T08:12:23.682Z,28.73
2022-12-14T08:15:25.279Z,27.38
2022-12-14T08:18:26.799Z,27.02
2022-12-14T08:21:29.084Z,28.75
2022-12-14T08:24:30.587Z,26.17
2022-12-14T08:27:32.183Z,27.00
2022-12-14T08:30:38.912Z,26.90
2022-12-14T08:33:41.831Z,27.27
2022-12-14T08:36:43.401Z,24.45
2022-12-14T08:39:45.114Z,28.92
2022-12-14T08:42:51.198Z,25.88
2022-12-14T08:45:54.886Z,23.98
2022-12-14T08:48:56.843Z,23.63
2022-12-14T08:51:58.335Z,25.20
2022-12-14T08:55:00.042Z,23.63
2022-12-14T08:58:01.724Z,21.80
2022-12-14T09:01:12.305Z,20.20
2022-12-14T09:04:13.997Z,19.08
2022-12-14T09:07:15.898Z,20.88
2022-12-14T09:10:17.396Z,20.50
2022-12-14T09:13:19.094Z,19.38
2022-12-14T09:16:21.872Z,20.92
2022-12-14T09:19:23.458Z,20.17
2022-12-14T09:22:25.023Z,20.25
2022-12-14T09:25:26.741Z,20.58
2022-12-14T09:28:29.267Z,19.50
2022-12-14T09:31:30.843Z,20.13
2022-12-14T09:34:32.376Z,19.13
2022-12-14T09:37:33.926Z,17.27
2022-12-14T09:40:35.619Z,16.58
2022-12-14T09:43:47.857Z,17.20
2022-12-14T09:47:10.835Z,16.77
2022-12-14T09:50:18.785Z,16.77
2022-12-14T09:53:21.816Z,18.88
2022-12-14T09:56:23.564Z,18.85
2022-12-14T09:59:28.139Z,20.63
2022-12-14T10:02:45.124Z,19.98
2022-12-14T10:06:05.566Z,18.98
2022-12-14T10:09:14.761Z,18.10
2022-12-14T10:12:52.656Z,17.70
2022-12-14T10:16:00.321Z,16.52
2022-12-14T10:19:33.683Z,27.65
2022-12-14T10:22:39.672Z,17.25
2022-12-14T10:25:43.996Z,18.30
2022-12-14T10:29:00.944Z,17.00
2022-12-14T10:32:28.917Z,17.20
2022-12-14T10:35:45.660Z,17.52
2022-12-14T10:39:02.128Z,18.60
2022-12-14T10:42:34.049Z,18.23
2022-12-14T10:45:54.547Z,20.60
2022-12-14T10:49:21.138Z,23.23
2022-12-14T10:52:25.601Z,18.70
2022-12-14T10:55:38.805Z,18.23
2022-12-14T10:58:40.682Z,18.85
2022-12-14T11:01:42.960Z,17.58
2022-12-14T11:04:51.349Z,18.55
2022-12-14T11:07:53.023Z,20.20
2022-12-14T11:11:18.671Z,19.67
2022-12-14T11:14:23.403Z,20.10
2022-12-14T11:17:44.099Z,18.90
2022-12-14T11:21:04.441Z,18.35
2022-12-14T11:24:06.873Z,20.98
2022-12-14T11:27:11.136Z,19.38
2022-12-14T11:30:16.652Z,25.10
2022-12-14T11:33:18.262Z,20.67
2022-12-14T11:36:31.893Z,19.98
2022-12-14T11:39:40.892Z,18.25
2022-12-14T11:42:49.000Z,19.98
2022-12-14T11:45:51.608Z,18.85
2022-12-14T11:48:53.326Z,17.85
2022-12-14T11:52:20.073Z,19.02
2022-12-14T11:55:26.661Z,16.98
2022-12-14T11:58:33.519Z,17.55
2022-12-14T12:01:35.633Z,15.73
2022-12-14T12:04:44.324Z,18.60
2022-12-14T12:07:58.106Z,17.98
2022-12-14T12:11:02.561Z,18.15
2022-12-14T12:14:18.828Z,17.10
2022-12-14T12:17:36.144Z,22.00
2022-12-14T12:20:42.656Z,21.95
2022-12-14T12:23:57.301Z,21.02
2022-12-14T12:27:11.859Z,21.75
2022-12-14T12:30:29.297Z,22.70
2022-12-14T12:33:56.363Z,22.33
2022-12-14T12:37:25.960Z,22.75
2022-12-14T12:40:56.138Z,22.30
2022-12-14T12:44:49.548Z,22.92
2022-12-14T12:48:01.778Z,22.20
2022-12-14T12:51:13.285Z,22.25
2022-12-14T12:54:21.797Z,22.23
2022-12-14T12:57:28.325Z,21.08
2022-12-14T13:00:31.177Z,20.75
2022-12-14T13:03:47.201Z,20.05
2022-12-14T13:06:53.957Z,19.77
2022-12-14T13:10:05.875Z,21.08
2022-12-14T13:13:14.879Z,27.00
2022-12-14T13:16:29.410Z,20.80
2022-12-14T13:19:50.510Z,20.75
2022-12-14T13:22:53.723Z,21.00
2022-12-14T13:26:07.752Z,18.30
2022-12-14T13:29:27.539Z,20.03
2022-12-14T13:32:44.343Z,17.63
2022-12-14T13:36:18.115Z,18.58
2022-12-14T13:39:36.480Z,16.42
2022-12-14T13:42:52.732Z,18.17
2022-12-14T13:45:54.946Z,19.55
2022-12-14T13:49:06.821Z,19.42
2022-12-14T13:52:35.283Z,18.95
2022-12-14T13:55:46.132Z,18.70
2022-12-14T13:58:50.747Z,19.95
2022-12-14T14:01:55.653Z,20.02
2022-12-14T14:05:15.433Z,22.88
2022-12-14T14:08:41.018Z,21.42
2022-12-14T14:11:44.953Z,21.95
2022-12-14T14:15:51.978Z,22.97
2022-12-14T14:19:12.944Z,24.02
2022-12-14T14:22:27.127Z,25.73
2022-12-14T14:25:34.474Z,26.48
2022-12-14T14:28:37.903Z,26.45
2022-12-14T14:32:00.887Z,27.45
2022-12-14T14:35:27.216Z,26.48
2022-12-14T14:38:31.829Z,28.35
2022-12-14T14:41:42.484Z,26.35
2022-12-14T14:44:56.663Z,26.45
2022-12-14T14:48:02.219Z,24.35
2022-12-14T14:51:14.476Z,25.92
2022-12-14T14:54:37.011Z,26.35
2022-12-14T14:57:57.419Z,26.17
2022-12-14T15:01:06.171Z,25.48
2022-12-14T15:04:23.066Z,27.98
2022-12-14T15:07:29.850Z,28.05
2022-12-14T15:10:37.362Z,28.20
2022-12-14T15:14:35.545Z,29.90
2022-12-14T15:17:37.148Z,29.25
2022-12-14T15:20:40.768Z,29.23
2022-12-14T15:23:49.475Z,29.45
2022-12-14T15:26:51.952Z,31.25
2022-12-14T15:30:06.563Z,29.52
2022-12-14T15:33:10.104Z,29.17
2022-12-14T15:36:16.107Z,30.70
2022-12-14T15:39:29.323Z,30.33
2022-12-14T15:42:30.979Z,30.80
2022-12-14T15:45:41.145Z,32.50
2022-12-14T15:48:42.983Z,31.90
2022-12-14T15:51:44.789Z,30.00
2022-12-14T15:54:46.396Z,28.48
2022-12-14T15:57:48.369Z,28.75
2022-12-14T16:00:52.465Z,28.30
2022-12-14T16:07:08.261Z,29.75
2022-12-14T16:10:24.797Z,28.50
2022-12-14T16:13:37.019Z,28.00
2022-12-14T16:16:38.864Z,30.58
2022-12-14T16:19:58.492Z,30.80
2022-12-14T16:23:15.954Z,28.98
2022-12-14T16:26:26.786Z,30.67
2022-12-14T16:29:31.483Z,34.65
2022-12-14T16:32:33.012Z,30.38
2022-12-14T16:35:37.225Z,31.08
2022-12-14T16:38:54.995Z,29.67
2022-12-14T16:42:01.095Z,34.92
2022-12-14T16:45:02.779Z,34.60
2022-12-14T16:48:14.573Z,31.73
2022-12-14T16:51:32.762Z,31.75
2022-12-14T16:54:40.745Z,34.65
2022-12-14T16:57:52.631Z,32.83
2022-12-14T17:01:00.875Z,37.03
2022-12-14T17:04:04.932Z,31.27
2022-12-14T17:07:06.808Z,32.78
2022-12-14T17:10:16.076Z,35.00
2022-12-14T17:13:17.948Z,31.45
2022-12-14T17:16:21.078Z,34.78
2022-12-14T17:19:37.051Z,32.77
2022-12-14T17:22:38.639Z,32.35
2022-12-14T17:25:44.669Z,32.90
2022-12-14T17:28:48.267Z,30.10
2022-12-14T17:31:52.375Z,30.63
2022-12-14T17:37:55.794Z,30.45
2022-12-14T17:40:57.457Z,31.42
2022-12-14T17:43:59.008Z,29.63
2022-12-14T17:47:00.569Z,28.63
2022-12-14T17:50:02.162Z,27.48
2022-12-14T17:53:03.714Z,28.02
2022-12-14T17:56:05.588Z,27.27
2022-12-14T17:59:07.185Z,29.10
2022-12-14T18:02:30.161Z,27.98
2022-12-14T18:05:34.255Z,29.13
2022-12-14T18:08:35.907Z,27.27
2022-12-14T18:11:49.355Z,27.10
2022-12-14T18:14:59.773Z,27.67
2022-12-14T18:18:01.690Z,27.23
2022-12-14T18:21:04.892Z,28.55
2022-12-14T18:24:11.507Z,29.55
2022-12-14T18:27:13.729Z,26.80
2022-12-14T18:30:15.360Z,25.23
2022-12-14T18:33:19.397Z,25.40
2022-12-14T18:36:21.565Z,26.88
2022-12-14T18:39:23.171Z,27.35
2022-12-14T18:42:25.391Z,24.73
2022-12-14T18:45:33.830Z,24.55
2022-12-14T18:48:35.294Z,24.65
2022-12-14T18:51:36.790Z,25.13
2022-12-14T18:54:38.232Z,24.77
2022-12-14T18:57:39.847Z,23.35
2022-12-14T19:00:41.368Z,23.50
2022-12-14T19:03:43.807Z,25.63
2022-12-14T19:06:46.040Z,23.65
2022-12-14T19:09:47.777Z,24.67
2022-12-14T19:12:50.582Z,24.23
2022-12-14T19:15:52.722Z,24.42
2022-12-14T19:18:54.409Z,24.00
2022-12-14T19:21:56.029Z,23.17
2022-12-14T19:24:57.632Z,24.48
2022-12-14T19:28:26.118Z,28.88
2022-12-14T19:31:22.062Z,28.48
2022-12-14T19:34:23.872Z,31.30
2022-12-14T19:37:25.555Z,30.80
2022-12-14T19:40:27.268Z,32.97
2022-12-14T19:43:29.833Z,31.65
2022-12-14T19:46:31.775Z,29.70
2022-12-14T19:49:33.540Z,29.90
2022-12-14T19:52:35.348Z,23.63
2022-12-14T19:55:36.870Z,22.42
2022-12-14T19:58:38.483Z,24.05
2022-12-14T20:01:46.260Z,22.67
2022-12-14T20:04:49.319Z,20.38
2022-12-14T20:07:50.905Z,21.48
2022-12-14T20:10:53.139Z,21.92
2022-12-14T20:13:58.897Z,23.08
2022-12-14T20:17:02.619Z,22.02
2022-12-14T20:20:04.563Z,23.10
2022-12-14T20:23:06.064Z,23.73
2022-12-14T20:26:12.202Z,30.77
2022-12-14T20:29:13.870Z,26.10
2022-12-14T20:32:15.520Z,28.65
2022-12-14T20:35:18.746Z,28.67
2022-12-14T20:38:20.266Z,26.80
2022-12-14T20:41:22.780Z,26.48
2022-12-14T20:44:24.385Z,26.75
2022-12-14T20:47:26.027Z,25.15
2022-12-14T20:50:27.641Z,29.15
2022-12-14T20:53:30.651Z,26.02
2022-12-14T20:56:34.315Z,26.33
2022-12-14T20:59:35.973Z,27.37
2022-12-14T21:03:02.620Z,26.52
2022-12-14T21:06:04.556Z,25.33
2022-12-14T21:09:10.322Z,27.63
2022-12-14T21:12:20.640Z,22.52
2022-12-14T21:15:22.217Z,23.92
2022-12-14T21:18:24.632Z,26.42
2022-12-14T21:21:26.476Z,23.55
2022-12-14T21:25:01.100Z,25.35
2022-12-14T21:27:49.965Z,23.58
2022-12-14T21:30:51.532Z,23.08
2022-12-14T21:33:54.600Z,20.67
2022-12-14T21:36:56.448Z,23.45
2022-12-14T21:39:58.025Z,21.40
2022-12-14T21:42:59.547Z,21.25
2022-12-14T21:46:01.196Z,26.20
2022-12-14T21:49:03.210Z,18.17
2022-12-14T21:52:07.545Z,18.38
2022-12-14T21:55:09.536Z,18.42
2022-12-14T21:58:17.220Z,18.75
2022-12-14T22:01:18.977Z,17.42
2022-12-14T22:04:24.523Z,21.08
2022-12-14T22:07:31.268Z,16.02
2022-12-14T22:10:32.862Z,16.48
2022-12-14T22:13:37.669Z,16.23
2022-12-14T22:16:40.968Z,15.18
2022-12-14T22:19:42.700Z,14.85
2022-12-14T22:22:44.889Z,15.50
2022-12-14T22:25:50.211Z,20.00
2022-12-14T22:28:52.725Z,17.42
2022-12-14T22:31:54.238Z,22.80
2022-12-14T22:34:55.882Z,18.27
2022-12-14T22:37:58.779Z,18.80
2022-12-14T22:41:05.099Z,21.50
2022-12-14T22:44:11.620Z,33.20
2022-12-14T22:47:13.328Z,30.65
2022-12-14T22:50:15.006Z,37.20
2022-12-14T22:53:26.721Z,44.22
2022-12-14T22:56:57.666Z,41.80
2022-12-14T23:00:04.837Z,36.17
2022-12-14T23:03:06.836Z,31.70
2022-12-14T23:06:15.505Z,28.50
2022-12-14T23:09:35.437Z,27.83
2022-12-14T23:12:55.760Z,25.75
2022-12-14T23:16:16.021Z,21.73
2022-12-14T23:19:36.103Z,21.35
2022-12-14T23:22:56.485Z,21.05
2022-12-14T23:26:20.532Z,15.68
2022-12-14T23:29:40.397Z,13.77
2022-12-14T23:33:00.319Z,16.42
2022-12-14T23:36:20.368Z,13.73
2022-12-14T23:39:40.235Z,13.13
2022-12-14T23:43:00.253Z,14.00
2022-12-14T23:46:24.499Z,12.38
2022-12-14T23:49:44.620Z,12.40
2022-12-14T23:53:04.495Z,11.63
2022-12-14T23:56:25.106Z,11.45
2022-12-14T23:59:49.532Z,11.95
